createdAt,value
2017-06-26T00:00:23.069Z,18.92
2017-06-26T00:02:52.857Z,18.95
2017-06-26T00:05:22.610Z,18.99
2017-06-26T00:07:52.304Z,18.88
2017-06-26T00:10:22.980Z,18.88
2017-06-26T00:12:52.666Z,19.07
2017-06-26T00:15:23.169Z,19.08
2017-06-26T00:17:52.857Z,19.08
2017-06-26T00:20:22.594Z,18.98
2017-06-26T00:22:52.451Z,19.13
2017-06-26T00:25:22.217Z,19.02
2017-06-26T00:27:51.953Z,18.91
2017-06-26T00:30:21.758Z,18.83
2017-06-26T00:32:51.533Z,18.72
2017-06-26T00:35:21.309Z,18.69
2017-06-26T00:37:51.586Z,18.67
2017-06-26T00:40:21.349Z,18.68
2017-06-26T00:42:51.129Z,18.83
2017-06-26T00:45:20.893Z,18.85
2017-06-26T00:47:52.949Z,18.77
2017-06-26T00:50:23.723Z,18.75
2017-06-26T00:52:54.152Z,18.90
2017-06-26T00:55:24.124Z,18.93
2017-06-26T00:57:53.929Z,18.92
2017-06-26T01:00:23.641Z,18.86
2017-06-26T01:02:53.369Z,18.84
2017-06-26T01:05:24.001Z,18.82
2017-06-26T01:07:53.858Z,18.97
2017-06-26T01:10:23.632Z,18.92
2017-06-26T01:12:53.009Z,18.84
2017-06-26T01:15:23.680Z,18.74
2017-06-26T01:17:53.507Z,18.75
2017-06-26T01:20:23.371Z,18.77
2017-06-26T01:22:53.179Z,18.65
2017-06-26T01:25:22.878Z,18.78
2017-06-26T01:27:53.111Z,18.81
2017-06-26T01:30:23.149Z,18.95
2017-06-26T01:32:52.893Z,18.98
2017-06-26T01:35:23.176Z,18.92
2017-06-26T01:37:52.918Z,19.11
2017-06-26T01:40:22.653Z,19.19
2017-06-26T01:42:52.037Z,19.09
2017-06-26T01:45:22.072Z,18.98
2017-06-26T01:47:51.798Z,18.82
2017-06-26T01:50:27.145Z,18.78
2017-06-26T01:52:56.873Z,18.77
2017-06-26T01:55:26.269Z,18.81
2017-06-26T01:57:56.131Z,18.85
2017-06-26T02:00:25.878Z,19.06
2017-06-26T02:02:55.601Z,18.99
2017-06-26T02:05:25.461Z,19.12
2017-06-26T02:07:55.207Z,19.26
2017-06-26T02:10:24.979Z,19.39
2017-06-26T02:12:54.755Z,19.48
2017-06-26T02:15:24.571Z,19.46
2017-06-26T02:17:54.274Z,19.50
2017-06-26T02:20:24.012Z,19.39
2017-06-26T02:22:53.815Z,19.43
2017-06-26T02:25:23.630Z,19.47
2017-06-26T02:27:55.972Z,19.42
2017-06-26T02:30:25.726Z,19.32
2017-06-26T02:32:56.162Z,19.33
2017-06-26T02:35:25.841Z,19.30
2017-06-26T02:37:55.593Z,19.27
2017-06-26T02:40:26.065Z,19.19
2017-06-26T02:42:55.833Z,19.22
2017-06-26T02:45:25.610Z,19.21
2017-06-26T02:47:55.943Z,19.20
2017-06-26T02:50:25.701Z,19.13
2017-06-26T02:53:03.501Z,19.01
2017-06-26T02:55:34.298Z,19.00
2017-06-26T02:58:04.941Z,19.10
2017-06-26T03:00:34.542Z,19.09
2017-06-26T03:03:05.058Z,19.13
2017-06-26T03:05:35.451Z,19.06
2017-06-26T03:08:05.694Z,19.08
2017-06-26T03:10:36.117Z,18.97
2017-06-26T03:13:05.858Z,19.05
2017-06-26T03:15:36.195Z,19.04
2017-06-26T03:18:05.953Z,18.98
2017-06-26T03:20:36.397Z,19.14
2017-06-26T03:23:06.725Z,19.17
2017-06-26T03:25:36.497Z,19.06
2017-06-26T03:28:06.223Z,19.15
2017-06-26T03:30:36.031Z,19.15
2017-06-26T03:33:05.737Z,19.05
2017-06-26T03:35:36.010Z,18.98
2017-06-26T03:38:05.822Z,18.93
2017-06-26T03:40:35.605Z,19.03
2017-06-26T03:43:05.449Z,18.99
2017-06-26T03:45:35.217Z,18.83
2017-06-26T03:48:04.946Z,19.00
2017-06-26T03:50:34.890Z,19.10
2017-06-26T03:53:04.654Z,19.09
2017-06-26T03:55:38.995Z,19.14
2017-06-26T03:58:11.871Z,19.13
2017-06-26T04:00:41.607Z,19.25
2017-06-26T04:03:11.292Z,19.23
2017-06-26T04:05:41.485Z,19.18
2017-06-26T04:08:11.276Z,19.27
2017-06-26T04:10:41.093Z,19.40
2017-06-26T04:13:13.267Z,19.34
2017-06-26T04:15:45.091Z,19.33
2017-06-26T04:18:16.936Z,19.33
2017-06-26T04:20:48.708Z,19.42
2017-06-26T04:23:20.749Z,19.48
2017-06-26T04:25:53.522Z,19.37
2017-06-26T04:28:26.540Z,19.26
2017-06-26T04:30:58.069Z,19.18
2017-06-26T04:33:29.955Z,19.33
2017-06-26T04:36:02.313Z,19.59
2017-06-26T04:38:34.706Z,19.79
2017-06-26T04:41:06.790Z,19.97
2017-06-26T04:43:38.945Z,20.21
2017-06-26T04:46:11.220Z,20.57
2017-06-26T04:48:44.046Z,20.60
2017-06-26T04:51:15.720Z,20.52
2017-06-26T04:53:48.603Z,20.56
2017-06-26T04:56:20.357Z,20.47
2017-06-26T04:58:52.631Z,20.70
2017-06-26T05:01:24.585Z,20.77
2017-06-26T05:03:54.437Z,20.81
2017-06-26T05:06:24.143Z,20.84
2017-06-26T05:08:54.542Z,20.84
2017-06-26T05:11:24.205Z,20.52
2017-06-26T05:13:54.758Z,20.60
2017-06-26T05:16:24.573Z,20.54
2017-06-26T05:18:54.306Z,20.50
2017-06-26T05:21:24.029Z,20.49
2017-06-26T05:23:53.827Z,20.59
2017-06-26T05:26:23.629Z,20.61
2017-06-26T05:28:54.585Z,20.58
2017-06-26T05:31:25.889Z,20.79
2017-06-26T05:33:59.077Z,20.77
2017-06-26T05:36:29.748Z,20.87
2017-06-26T05:38:59.432Z,20.84
2017-06-26T05:41:29.887Z,20.77
2017-06-26T05:44:00.654Z,20.73
2017-06-26T05:46:30.557Z,20.67
2017-06-26T05:49:00.358Z,20.57
2017-06-26T05:51:30.102Z,20.61
2017-06-26T05:53:59.934Z,20.55
2017-06-26T05:56:29.735Z,20.49
2017-06-26T05:58:59.567Z,20.61
2017-06-26T06:01:29.998Z,20.51
2017-06-26T06:04:00.391Z,20.49
2017-06-26T06:06:30.085Z,20.45
2017-06-26T06:09:00.685Z,20.43
2017-06-26T06:11:30.450Z,20.46
2017-06-26T06:14:00.146Z,20.60
2017-06-26T06:16:29.878Z,20.49
2017-06-26T06:18:59.702Z,20.46
2017-06-26T06:21:29.542Z,20.52
2017-06-26T06:23:59.993Z,20.63
2017-06-26T06:26:30.677Z,20.45
2017-06-26T06:29:00.393Z,20.60
2017-06-26T06:31:30.094Z,20.55
2017-06-26T06:33:59.849Z,20.55
2017-06-26T06:36:29.617Z,20.63
2017-06-26T06:39:00.089Z,20.63
2017-06-26T06:41:29.703Z,20.69
2017-06-26T06:43:59.546Z,20.70
2017-06-26T06:46:30.294Z,20.86
2017-06-26T06:49:00.105Z,20.88
2017-06-26T06:51:29.836Z,20.85
2017-06-26T06:54:00.175Z,21.01
2017-06-26T06:56:30.453Z,21.21
2017-06-26T06:59:00.225Z,21.51
2017-06-26T07:01:29.971Z,21.57
2017-06-26T07:03:59.757Z,21.81
2017-06-26T07:06:29.517Z,21.65
2017-06-26T07:08:59.278Z,21.44
2017-06-26T07:11:29.630Z,21.15
2017-06-26T07:13:59.446Z,20.64
2017-06-26T07:16:29.146Z,20.13
2017-06-26T07:18:58.982Z,19.68
2017-06-26T07:21:28.787Z,19.58
2017-06-26T07:24:02.535Z,19.45
2017-06-26T07:26:35.172Z,19.44
2017-06-26T07:29:04.896Z,19.59
2017-06-26T07:31:34.678Z,19.61
2017-06-26T07:34:04.433Z,19.62
2017-06-26T07:36:34.179Z,19.57
2017-06-26T07:39:03.370Z,19.61
2017-06-26T07:41:33.206Z,19.50
2017-06-26T07:44:02.937Z,19.15
2017-06-26T07:46:32.712Z,18.92
2017-06-26T07:49:02.469Z,18.91
2017-06-26T07:51:33.689Z,18.88
2017-06-26T07:54:03.451Z,18.93
2017-06-26T07:56:33.377Z,18.82
2017-06-26T07:59:03.050Z,18.52
2017-06-26T08:01:33.014Z,18.69
2017-06-26T08:04:03.346Z,18.48
2017-06-26T08:06:33.177Z,18.49
2017-06-26T08:09:02.732Z,18.59
2017-06-26T08:11:32.406Z,18.23
2017-06-26T08:14:02.195Z,18.23
2017-06-26T08:16:32.597Z,18.35
2017-06-26T08:19:02.358Z,18.18
2017-06-26T08:21:32.038Z,18.23
2017-06-26T08:24:02.587Z,18.18
2017-06-26T08:26:37.119Z,18.41
2017-06-26T08:29:12.979Z,18.28
2017-06-26T08:31:42.846Z,18.46
2017-06-26T08:34:12.574Z,18.08
2017-06-26T08:36:42.426Z,17.97
2017-06-26T08:39:12.288Z,18.04
2017-06-26T08:41:42.033Z,18.10
2017-06-26T08:44:12.507Z,18.28
2017-06-26T08:46:42.351Z,18.27
2017-06-26T08:49:12.101Z,18.28
2017-06-26T08:51:41.813Z,18.26
2017-06-26T08:54:11.593Z,18.30
2017-06-26T08:56:41.354Z,18.24
2017-06-26T08:59:11.120Z,18.19
2017-06-26T09:01:40.876Z,18.34
2017-06-26T09:04:11.339Z,18.38
2017-06-26T09:06:41.075Z,18.23
2017-06-26T09:09:10.810Z,18.41
2017-06-26T09:11:41.358Z,18.60
2017-06-26T09:14:11.818Z,18.69
2017-06-26T09:16:41.678Z,18.82
2017-06-26T09:19:11.395Z,18.98
2017-06-26T09:21:41.118Z,18.93
2017-06-26T09:24:11.021Z,19.05
2017-06-26T09:26:40.765Z,19.24
2017-06-26T09:29:13.591Z,19.15
2017-06-26T09:31:43.323Z,19.36
2017-06-26T09:34:13.026Z,19.38
2017-06-26T09:36:43.393Z,19.58
2017-06-26T09:39:13.188Z,19.66
2017-06-26T09:41:42.926Z,19.75
2017-06-26T09:44:12.662Z,19.96
2017-06-26T09:46:42.442Z,20.15
2017-06-26T09:49:12.189Z,20.37
2017-06-26T09:51:41.506Z,20.20
2017-06-26T09:54:11.372Z,20.21
2017-06-26T09:56:41.184Z,20.14
2017-06-26T09:59:11.214Z,20.12
2017-06-26T10:01:40.951Z,19.85
2017-06-26T10:04:10.750Z,19.77
2017-06-26T10:06:40.538Z,19.84
2017-06-26T10:09:10.305Z,19.96
2017-06-26T10:11:40.933Z,20.29
2017-06-26T10:14:11.438Z,20.53
2017-06-26T10:16:41.158Z,20.83
2017-06-26T10:19:10.976Z,20.82
2017-06-26T10:21:40.705Z,20.96
2017-06-26T10:24:10.477Z,20.91
2017-06-26T10:26:40.233Z,21.04
2017-06-26T10:29:09.946Z,21.07
2017-06-26T10:31:43.575Z,21.11
2017-06-26T10:34:15.945Z,21.21
2017-06-26T10:36:45.770Z,21.24
2017-06-26T10:39:15.460Z,21.28
2017-06-26T10:41:45.231Z,21.23
2017-06-26T10:44:15.754Z,21.24
2017-06-26T10:46:45.429Z,21.30
2017-06-26T10:49:15.721Z,21.13
2017-06-26T10:51:45.396Z,21.36
2017-06-26T10:54:15.126Z,21.57
2017-06-26T10:56:45.085Z,21.26
2017-06-26T10:59:14.778Z,21.60
2017-06-26T11:01:44.530Z,21.64
2017-06-26T11:04:14.874Z,21.88
2017-06-26T11:06:44.628Z,21.72
2017-06-26T11:09:14.361Z,21.84
2017-06-26T11:11:44.055Z,21.72
2017-06-26T11:14:13.765Z,21.75
2017-06-26T11:16:43.505Z,21.64
2017-06-26T11:19:13.281Z,21.64
2017-06-26T11:21:43.017Z,21.67
2017-06-26T11:24:12.745Z,21.55
2017-06-26T11:26:42.566Z,21.45
2017-06-26T11:29:12.239Z,21.53
2017-06-26T11:31:42.855Z,21.50
2017-06-26T11:34:20.628Z,21.64
2017-06-26T11:36:51.076Z,21.60
2017-06-26T11:39:20.847Z,21.50
2017-06-26T11:41:51.105Z,21.68
2017-06-26T11:44:20.797Z,21.39
2017-06-26T11:46:50.490Z,21.47
2017-06-26T11:49:20.257Z,21.48
2017-06-26T11:51:49.947Z,21.60
2017-06-26T11:54:19.709Z,21.79
2017-06-26T11:56:49.456Z,22.12
2017-06-26T11:59:19.157Z,22.27
2017-06-26T12:01:48.998Z,22.54
2017-06-26T12:04:18.777Z,22.46
2017-06-26T12:06:48.511Z,22.50
2017-06-26T12:09:18.341Z,22.45
2017-06-26T12:11:48.118Z,22.12
2017-06-26T12:14:18.485Z,22.14
2017-06-26T12:16:48.163Z,22.14
2017-06-26T12:19:18.643Z,21.94
2017-06-26T12:21:48.424Z,21.76
2017-06-26T12:24:18.218Z,21.48
2017-06-26T12:26:48.002Z,21.53
2017-06-26T12:29:18.334Z,21.60
2017-06-26T12:31:48.153Z,21.79
2017-06-26T12:34:17.842Z,21.71
2017-06-26T12:36:47.534Z,21.70
2017-06-26T12:39:17.345Z,21.83
2017-06-26T12:41:47.042Z,21.84
2017-06-26T12:44:16.836Z,21.98
2017-06-26T12:46:46.590Z,22.09
2017-06-26T12:49:16.273Z,22.21
2017-06-26T12:51:46.713Z,22.11
2017-06-26T12:54:16.441Z,22.02
2017-06-26T12:56:46.177Z,21.85
2017-06-26T12:59:15.970Z,21.87
2017-06-26T13:01:45.771Z,21.81
2017-06-26T13:04:16.062Z,21.80
2017-06-26T13:06:45.823Z,21.89
2017-06-26T13:09:15.598Z,21.87
2017-06-26T13:11:45.377Z,21.82
2017-06-26T13:14:15.170Z,22.02
2017-06-26T13:16:44.923Z,21.99
2017-06-26T13:19:14.697Z,22.00
2017-06-26T13:21:44.478Z,22.09
2017-06-26T13:24:14.709Z,22.15
2017-06-26T13:26:44.477Z,22.09
2017-06-26T13:29:14.168Z,21.93
2017-06-26T13:31:43.889Z,21.94
2017-06-26T13:34:13.594Z,21.92
2017-06-26T13:36:43.381Z,21.76
2017-06-26T13:39:17.500Z,21.72
2017-06-26T13:41:48.186Z,21.66
2017-06-26T13:44:18.009Z,21.58
2017-06-26T13:46:47.775Z,21.80
2017-06-26T13:49:18.245Z,21.84
2017-06-26T13:51:47.921Z,21.78
2017-06-26T13:54:18.420Z,21.68
2017-06-26T13:56:48.716Z,21.58
2017-06-26T13:59:18.506Z,21.60
2017-06-26T14:01:48.254Z,21.50
2017-06-26T14:04:18.017Z,21.47
2017-06-26T14:06:47.981Z,21.44
2017-06-26T14:09:17.672Z,21.48
2017-06-26T14:11:47.410Z,21.20
2017-06-26T14:14:17.748Z,21.02
2017-06-26T14:16:47.565Z,20.96
2017-06-26T14:19:17.345Z,21.12
2017-06-26T14:21:47.078Z,21.22
2017-06-26T14:24:16.774Z,21.31
2017-06-26T14:26:46.508Z,21.78
2017-06-26T14:29:16.228Z,22.03
2017-06-26T14:31:45.918Z,22.12
2017-06-26T14:34:15.713Z,22.18
2017-06-26T14:36:46.041Z,22.10
2017-06-26T14:39:16.337Z,22.15
2017-06-26T14:41:55.092Z,22.16
2017-06-26T14:44:26.539Z,22.21
2017-06-26T14:46:56.877Z,22.27
2017-06-26T14:49:26.605Z,22.11
2017-06-26T14:51:56.647Z,22.03
2017-06-26T14:54:26.353Z,22.01
2017-06-26T14:56:56.853Z,22.06
2017-06-26T14:59:26.706Z,21.88
2017-06-26T15:01:57.033Z,21.98
2017-06-26T15:04:26.834Z,21.87
2017-06-26T15:06:56.558Z,21.92
2017-06-26T15:09:27.141Z,21.80
2017-06-26T15:11:56.954Z,21.88
2017-06-26T15:14:26.680Z,21.83
2017-06-26T15:16:56.426Z,21.69
2017-06-26T15:19:26.265Z,21.90
2017-06-26T15:21:56.058Z,21.71
2017-06-26T15:24:26.339Z,21.75
2017-06-26T15:26:56.084Z,21.84
2017-06-26T15:29:25.783Z,21.80
2017-06-26T15:31:55.513Z,21.81
2017-06-26T15:34:25.194Z,21.89
2017-06-26T15:36:55.002Z,21.93
2017-06-26T15:39:24.757Z,21.95
2017-06-26T15:41:54.465Z,21.91
2017-06-26T15:44:24.218Z,21.87
2017-06-26T15:46:54.059Z,21.92
2017-06-26T15:49:23.789Z,21.87
2017-06-26T15:51:53.539Z,21.80
2017-06-26T15:54:23.227Z,21.79
2017-06-26T15:56:52.977Z,21.79
2017-06-26T15:59:22.752Z,21.88
2017-06-26T16:01:52.625Z,21.91
2017-06-26T16:04:26.631Z,21.95
2017-06-26T16:06:57.835Z,22.07
2017-06-26T16:09:27.557Z,22.19
2017-06-26T16:11:57.813Z,22.05
2017-06-26T16:14:27.604Z,21.98
2017-06-26T16:16:57.280Z,21.97
2017-06-26T16:19:27.076Z,22.06
2017-06-26T16:21:56.827Z,22.07
2017-06-26T16:24:26.553Z,22.08
2017-06-26T16:26:56.517Z,22.05
2017-06-26T16:29:26.206Z,21.95
2017-06-26T16:31:55.941Z,21.97
2017-06-26T16:34:25.637Z,21.90
2017-06-26T16:36:55.454Z,21.94
2017-06-26T16:39:25.237Z,21.89
2017-06-26T16:41:54.914Z,21.68
2017-06-26T16:44:24.633Z,21.71
2017-06-26T16:46:55.111Z,21.79
2017-06-26T16:49:24.881Z,21.75
2017-06-26T16:51:54.642Z,21.82
2017-06-26T16:54:24.341Z,21.73
2017-06-26T16:56:54.066Z,21.72
2017-06-26T16:59:23.804Z,21.78
2017-06-26T17:01:53.646Z,21.72
2017-06-26T17:04:23.410Z,21.73
2017-06-26T17:06:53.083Z,21.74
2017-06-26T17:09:22.836Z,21.75
2017-06-26T17:11:52.532Z,21.81
2017-06-26T17:14:22.327Z,21.88
2017-06-26T17:16:52.725Z,21.79
2017-06-26T17:19:22.562Z,21.83
2017-06-26T17:21:53.090Z,21.81
2017-06-26T17:24:24.790Z,21.68
2017-06-26T17:26:54.874Z,21.65
2017-06-26T17:29:24.700Z,21.61
2017-06-26T17:31:54.389Z,21.66
2017-06-26T17:34:24.052Z,21.67
2017-06-26T17:36:53.748Z,21.56
2017-06-26T17:39:23.502Z,21.59
2017-06-26T17:41:54.765Z,21.57
2017-06-26T17:44:24.456Z,21.50
2017-06-26T17:46:54.145Z,21.44
2017-06-26T17:49:24.445Z,21.43
2017-06-26T17:51:54.753Z,21.44
2017-06-26T17:54:24.572Z,21.40
2017-06-26T17:56:54.353Z,21.29
2017-06-26T17:59:24.062Z,21.21
2017-06-26T18:01:54.084Z,21.18
2017-06-26T18:04:24.802Z,21.20
2017-06-26T18:06:54.680Z,21.14
2017-06-26T18:09:24.462Z,20.98
2017-06-26T18:11:54.709Z,20.90
2017-06-26T18:14:24.536Z,20.99
2017-06-26T18:16:54.281Z,20.90
2017-06-26T18:19:24.062Z,20.87
2017-06-26T18:21:53.931Z,20.85
2017-06-26T18:24:23.926Z,20.82
2017-06-26T18:26:53.757Z,20.74
2017-06-26T18:29:23.993Z,20.68
2017-06-26T18:31:54.108Z,20.75
2017-06-26T18:34:23.869Z,20.80
2017-06-26T18:36:53.550Z,20.86
2017-06-26T18:39:23.881Z,20.68
2017-06-26T18:41:54.395Z,20.56
2017-06-26T18:44:24.145Z,20.55
2017-06-26T18:46:54.069Z,20.59
2017-06-26T18:49:23.917Z,20.42
2017-06-26T18:51:55.059Z,20.54
2017-06-26T18:54:29.529Z,20.43
2017-06-26T18:56:59.477Z,20.30
2017-06-26T18:59:29.315Z,20.40
2017-06-26T19:01:59.065Z,20.44
2017-06-26T19:04:28.795Z,20.45
2017-06-26T19:07:00.555Z,20.50
2017-06-26T19:09:32.533Z,20.51
2017-06-26T19:12:02.882Z,20.45
2017-06-26T19:14:36.977Z,20.33
2017-06-26T19:19:48.362Z,20.46
2017-06-26T19:22:18.073Z,20.32
2017-06-26T19:24:49.418Z,20.38
2017-06-26T19:27:22.212Z,20.35
2017-06-26T19:29:55.709Z,20.10
2017-06-26T19:32:26.633Z,19.96
2017-06-26T19:34:56.462Z,19.98
2017-06-26T19:37:26.163Z,20.00
2017-06-26T19:39:57.381Z,19.86
2017-06-26T19:42:28.913Z,19.80
2017-06-26T19:45:01.973Z,19.85
2017-06-26T19:47:32.122Z,19.86
2017-06-26T19:50:01.903Z,19.75
2017-06-26T19:52:31.637Z,19.60
2017-06-26T19:55:01.377Z,19.60
2017-06-26T19:57:31.170Z,19.61
2017-06-26T20:00:02.384Z,19.55
2017-06-26T20:02:34.701Z,19.57
2017-06-26T20:05:07.923Z,19.37
2017-06-26T20:07:41.184Z,19.20
2017-06-26T20:10:14.075Z,19.05
2017-06-26T20:12:46.310Z,19.00
2017-06-26T20:15:18.828Z,18.91
2017-06-26T20:17:52.135Z,18.75
2017-06-26T20:20:23.921Z,18.56
2017-06-26T20:22:55.511Z,18.64
2017-06-26T20:25:27.741Z,18.61
2017-06-26T20:27:59.302Z,18.57
2017-06-26T20:30:32.157Z,18.53
2017-06-26T20:33:04.748Z,18.46
2017-06-26T20:35:37.834Z,18.36
2017-06-26T20:38:10.262Z,18.36
2017-06-26T20:40:40.438Z,18.24
2017-06-26T20:43:10.353Z,18.16
2017-06-26T20:45:41.447Z,18.27
2017-06-26T20:48:11.134Z,18.39
2017-06-26T20:50:40.888Z,18.16
2017-06-26T20:53:10.689Z,18.07
2017-06-26T20:55:40.449Z,17.92
2017-06-26T20:58:10.191Z,17.76
2017-06-26T21:00:39.933Z,17.84
2017-06-26T21:03:09.747Z,17.77
2017-06-26T21:05:39.516Z,17.70
2017-06-26T21:08:10.677Z,17.67
2017-06-26T21:10:40.753Z,17.64
2017-06-26T21:13:10.706Z,17.60
2017-06-26T21:15:43.884Z,17.55
2017-06-26T21:18:16.317Z,17.63
2017-06-26T21:20:47.498Z,17.53
2017-06-26T21:23:17.195Z,17.50
2017-06-26T21:25:46.875Z,17.40
2017-06-26T21:28:16.680Z,17.20
2017-06-26T21:30:47.250Z,17.08
2017-06-26T21:33:17.027Z,16.97
2017-06-26T21:35:46.770Z,17.02
2017-06-26T21:38:16.482Z,17.15
2017-06-26T21:40:46.823Z,17.06
2017-06-26T21:43:16.541Z,17.06
2017-06-26T21:45:46.262Z,16.85
2017-06-26T21:48:16.041Z,16.70
2017-06-26T21:50:46.517Z,16.73
2017-06-26T21:53:16.829Z,16.82
2017-06-26T21:55:46.602Z,16.71
2017-06-26T21:58:16.359Z,16.72
2017-06-26T22:00:46.051Z,16.71
2017-06-26T22:03:15.802Z,16.69
2017-06-26T22:05:45.231Z,16.67
2017-06-26T22:08:15.094Z,16.56
2017-06-26T22:10:44.825Z,16.38
2017-06-26T22:13:14.539Z,16.43
2017-06-26T22:15:44.350Z,16.46
2017-06-26T22:18:14.053Z,16.42
2017-06-26T22:20:46.790Z,16.46
2017-06-26T22:23:16.461Z,16.53
2017-06-26T22:25:46.140Z,16.55
2017-06-26T22:28:15.909Z,16.42
2017-06-26T22:30:45.614Z,16.23
2017-06-26T22:33:15.374Z,16.18
2017-06-26T22:35:45.057Z,16.22
2017-06-26T22:38:14.928Z,16.20
2017-06-26T22:40:44.693Z,16.21
2017-06-26T22:43:14.376Z,16.15
2017-06-26T22:45:44.098Z,15.87
2017-06-26T22:48:13.878Z,16.08
2017-06-26T22:50:43.678Z,16.01
2017-06-26T22:53:13.433Z,15.97
2017-06-26T22:55:43.218Z,15.99
2017-06-26T22:58:13.126Z,15.94
2017-06-26T23:00:42.873Z,15.88
2017-06-26T23:03:12.590Z,15.96
2017-06-26T23:05:42.317Z,15.98
2017-06-26T23:08:12.589Z,15.73
2017-06-26T23:10:42.381Z,15.85
2017-06-26T23:13:12.181Z,15.72
2017-06-26T23:15:42.063Z,15.70
2017-06-26T23:18:11.832Z,15.60
2017-06-26T23:20:41.619Z,15.50
2017-06-26T23:23:13.459Z,15.62
2017-06-26T23:25:46.901Z,15.54
2017-06-26T23:28:17.273Z,15.62
2017-06-26T23:30:48.144Z,15.67
2017-06-26T23:33:18.020Z,15.66
2017-06-26T23:35:47.857Z,15.77
2017-06-26T23:38:17.602Z,15.81
2017-06-26T23:40:48.325Z,15.78
2017-06-26T23:43:18.005Z,15.83
2017-06-26T23:45:47.752Z,15.87
2017-06-26T23:48:17.466Z,15.88
2017-06-26T23:50:47.138Z,15.91
2017-06-26T23:53:17.090Z,15.94
2017-06-26T23:55:47.090Z,15.91
2017-06-26T23:58:16.830Z,15.99
